createdAt,value
2023-03-14T00:03:13.367Z,6.90
2023-03-14T00:08:16.396Z,9.10
2023-03-14T00:13:19.097Z,8.70
2023-03-14T00:18:21.896Z,9.40
2023-03-14T00:23:24.664Z,8.20
2023-03-14T00:28:28.379Z,10.00
2023-03-14T00:33:31.280Z,9.50
2023-03-14T00:38:34.664Z,9.20
2023-03-14T00:43:37.946Z,7.60
2023-03-14T00:48:40.645Z,8.20
2023-03-14T00:53:43.861Z,7.80
2023-03-14T01:03:53.562Z,8.40
2023-03-14T01:08:57.766Z,9.10
2023-03-14T01:14:01.693Z,7.70
2023-03-14T01:19:05.243Z,8.30
2023-03-14T01:24:08.125Z,8.70
2023-03-14T01:29:10.861Z,9.80
2023-03-14T01:34:13.642Z,8.60
2023-03-14T01:39:16.342Z,8.70
2023-03-14T01:44:19.031Z,7.50
2023-03-14T01:49:29.827Z,7.80
2023-03-14T01:54:40.449Z,8.10
2023-03-14T01:59:49.453Z,8.30
2023-03-14T02:04:53.176Z,7.80
2023-03-14T02:09:58.911Z,8.30
2023-03-14T02:15:01.652Z,9.30
2023-03-14T02:20:29.335Z,8.50
2023-03-14T02:25:55.177Z,7.30
2023-03-14T02:30:58.156Z,7.80
2023-03-14T02:36:03.615Z,8.40
2023-03-14T02:41:06.848Z,7.70
2023-03-14T02:51:15.839Z,8.00
2023-03-14T02:56:18.582Z,8.60
2023-03-14T03:01:21.369Z,7.60
2023-03-14T03:06:24.190Z,7.90
2023-03-14T03:11:26.931Z,7.50
2023-03-14T03:16:29.709Z,7.70
2023-03-14T03:21:32.408Z,7.60
2023-03-14T03:26:36.711Z,7.20
2023-03-14T03:31:39.807Z,6.80
2023-03-14T03:41:45.189Z,5.80
2023-03-14T03:46:47.989Z,6.90
2023-03-14T03:51:50.994Z,7.70
2023-03-14T03:56:53.710Z,6.60
2023-03-14T04:01:56.392Z,6.80
2023-03-14T04:06:59.388Z,6.20
2023-03-14T04:12:02.190Z,6.70
2023-03-14T04:17:04.863Z,6.70
2023-03-14T04:22:07.595Z,7.10
2023-03-14T04:27:10.295Z,6.30
2023-03-14T04:32:13.009Z,8.00
2023-03-14T04:37:15.790Z,8.70
2023-03-14T04:42:18.594Z,8.00
2023-03-14T04:47:21.285Z,7.00
2023-03-14T04:52:24.069Z,6.80
2023-03-14T04:57:26.796Z,8.40
2023-03-14T05:02:29.554Z,8.80
2023-03-14T05:07:32.385Z,8.90
2023-03-14T05:12:35.150Z,8.10
2023-03-14T05:17:37.842Z,8.00
2023-03-14T05:22:40.770Z,6.60
2023-03-14T05:32:46.402Z,7.30
2023-03-14T05:37:49.597Z,7.40
2023-03-14T05:42:53.321Z,7.50
2023-03-14T05:47:56.030Z,6.80
2023-03-14T05:52:58.833Z,7.70
2023-03-14T05:58:01.562Z,7.10
2023-03-14T06:03:06.063Z,8.00
2023-03-14T06:08:10.101Z,6.70
2023-03-14T06:13:13.066Z,7.80
2023-03-14T06:18:16.008Z,7.60
2023-03-14T06:23:18.796Z,7.20
2023-03-14T06:28:21.474Z,8.20
2023-03-14T06:33:24.202Z,7.80
2023-03-14T06:38:26.931Z,7.00
2023-03-14T06:43:29.624Z,7.50
2023-03-14T06:48:32.397Z,8.70
2023-03-14T06:53:35.538Z,7.40
2023-03-14T07:03:40.922Z,7.10
2023-03-14T07:08:49.879Z,7.40
2023-03-14T07:13:56.018Z,8.00
2023-03-14T07:19:03.906Z,8.00
2023-03-14T07:24:08.447Z,8.20
2023-03-14T07:29:13.201Z,7.80
2023-03-14T07:34:22.819Z,8.40
2023-03-14T07:39:31.877Z,9.70
2023-03-14T07:44:35.747Z,9.50
2023-03-14T07:49:39.016Z,7.80
2023-03-14T07:54:41.721Z,8.50
2023-03-14T07:59:45.088Z,8.40
2023-03-14T08:04:48.231Z,7.40
2023-03-14T08:09:51.026Z,8.30
2023-03-14T08:14:53.923Z,7.80
2023-03-14T08:19:56.596Z,7.00
2023-03-14T08:24:59.288Z,7.10
2023-03-14T08:30:02.181Z,7.90
2023-03-14T08:35:06.880Z,7.90
2023-03-14T08:40:11.281Z,7.30
2023-03-14T08:45:19.160Z,8.00
2023-03-14T08:50:24.278Z,7.60
2023-03-14T08:55:30.603Z,7.30
2023-03-14T09:00:33.417Z,7.10
2023-03-14T09:05:36.166Z,9.80
2023-03-14T09:10:39.642Z,9.80
2023-03-14T09:15:43.515Z,7.40
2023-03-14T09:20:46.232Z,9.30
2023-03-14T09:25:48.993Z,7.50
2023-03-14T09:35:54.700Z,8.10
2023-03-14T09:41:02.672Z,7.50
2023-03-14T09:46:06.399Z,8.50
2023-03-14T09:51:15.153Z,7.80
2023-03-14T09:56:23.004Z,10.70
2023-03-14T10:01:31.091Z,9.50
2023-03-14T10:06:36.172Z,8.10
2023-03-14T10:11:40.646Z,7.50
2023-03-14T10:16:45.814Z,9.40
2023-03-14T10:21:54.410Z,9.80
2023-03-14T10:27:04.091Z,9.00
2023-03-14T10:32:11.684Z,8.50
2023-03-14T10:37:22.253Z,9.00
2023-03-14T10:42:32.912Z,8.70
2023-03-14T10:47:36.298Z,7.90
2023-03-14T10:53:02.020Z,8.50
2023-03-14T10:58:06.507Z,9.20
2023-03-14T11:03:17.027Z,8.30
2023-03-14T11:08:19.801Z,9.40
2023-03-14T11:18:44.666Z,8.60
2023-03-14T11:24:02.758Z,7.50
2023-03-14T11:29:34.375Z,7.00
2023-03-14T11:34:50.496Z,7.60
2023-03-14T11:40:21.381Z,7.20
2023-03-14T11:45:32.352Z,7.40
2023-03-14T11:50:37.454Z,7.00
2023-03-14T11:55:43.373Z,7.00
2023-03-14T12:00:54.345Z,7.80
2023-03-14T12:06:15.572Z,9.40
2023-03-14T12:11:21.116Z,6.90
2023-03-14T12:16:40.355Z,7.50
2023-03-14T12:22:03.232Z,7.10
2023-03-14T12:27:10.249Z,7.70
2023-03-14T12:32:25.752Z,8.00
2023-03-14T12:37:37.806Z,6.70
2023-03-14T12:43:05.316Z,8.50
2023-03-14T12:48:24.913Z,7.60
2023-03-14T12:53:58.703Z,6.50
2023-03-14T12:59:27.484Z,8.00
2023-03-14T13:04:39.747Z,6.90
2023-03-14T13:15:32.598Z,6.50
2023-03-14T13:20:51.008Z,6.60
2023-03-14T13:26:15.120Z,7.30
2023-03-14T13:31:27.526Z,8.20
2023-03-14T13:36:32.743Z,8.30
2023-03-14T13:41:46.954Z,10.30
2023-03-14T13:46:50.782Z,8.60
2023-03-14T13:51:55.799Z,7.70
2023-03-14T13:57:09.096Z,9.80
2023-03-14T14:02:18.345Z,8.40
2023-03-14T14:07:28.173Z,9.10
2023-03-14T14:12:59.472Z,9.70
2023-03-14T14:18:13.608Z,9.00
2023-03-14T14:23:30.989Z,8.70
2023-03-14T14:28:46.083Z,9.00
2023-03-14T14:33:51.505Z,8.70
2023-03-14T14:39:00.035Z,8.20
2023-03-14T14:44:08.454Z,9.20
2023-03-14T14:49:15.239Z,7.20
2023-03-14T14:54:57.466Z,9.10
2023-03-14T15:00:20.196Z,9.40
2023-03-14T15:05:26.103Z,9.30
2023-03-14T15:10:28.960Z,10.20
2023-03-14T15:20:34.768Z,8.50
2023-03-14T15:25:54.120Z,9.70
2023-03-14T15:30:59.806Z,9.60
2023-03-14T15:36:02.906Z,9.90
2023-03-14T15:46:12.911Z,10.30
2023-03-14T15:51:15.767Z,8.80
2023-03-14T15:56:20.468Z,9.60
2023-03-14T16:01:23.398Z,10.40
2023-03-14T16:06:26.267Z,8.40
2023-03-14T16:11:28.985Z,9.60
2023-03-14T16:16:31.792Z,9.10
2023-03-14T16:21:34.720Z,9.90
2023-03-14T16:26:37.525Z,10.60
2023-03-14T16:31:43.216Z,11.20
2023-03-14T16:36:47.887Z,10.90
2023-03-14T16:41:50.577Z,10.20
2023-03-14T16:46:53.315Z,8.80
2023-03-14T16:51:56.119Z,10.10
2023-03-14T16:56:59.453Z,9.30
2023-03-14T17:02:02.344Z,10.50
2023-03-14T17:07:05.257Z,9.20
2023-03-14T17:12:08.548Z,11.30
2023-03-14T17:17:11.445Z,8.80
2023-03-14T17:27:28.515Z,9.50
2023-03-14T17:32:31.283Z,8.60
2023-03-14T17:37:34.178Z,9.20
2023-03-14T17:42:36.926Z,10.10
2023-03-14T17:47:39.756Z,9.80
2023-03-14T17:52:42.608Z,9.30
2023-03-14T17:57:45.364Z,11.00
2023-03-14T18:02:48.279Z,10.30
2023-03-14T18:07:51.302Z,10.80
2023-03-14T18:12:54.212Z,16.20
2023-03-14T18:17:56.980Z,10.10
2023-03-14T18:23:01.971Z,10.60
2023-03-14T18:28:04.811Z,10.70
2023-03-14T18:33:07.608Z,10.20
2023-03-14T18:38:10.348Z,11.20
2023-03-14T18:43:13.088Z,10.20
2023-03-14T18:48:15.889Z,11.10
2023-03-14T18:53:19.063Z,9.40
2023-03-14T19:03:30.083Z,9.60
2023-03-14T19:08:35.033Z,13.20
2023-03-14T19:13:39.545Z,9.60
2023-03-14T19:18:42.433Z,10.20
2023-03-14T19:23:49.114Z,12.10
2023-03-14T19:28:54.978Z,12.90
2023-03-14T19:33:58.891Z,11.50
2023-03-14T19:39:03.608Z,10.80
2023-03-14T19:44:06.585Z,12.90
2023-03-14T19:49:09.315Z,10.80
2023-03-14T19:54:12.250Z,12.50
2023-03-14T19:59:14.977Z,12.50
2023-03-14T20:04:17.816Z,9.90
2023-03-14T20:09:21.401Z,12.70
2023-03-14T20:14:24.439Z,13.90
2023-03-14T20:24:32.603Z,13.30
2023-03-14T20:29:35.342Z,11.30
2023-03-14T20:34:39.148Z,10.80
2023-03-14T20:39:41.938Z,13.40
2023-03-14T20:44:45.755Z,12.00
2023-03-14T20:49:48.483Z,13.90
2023-03-14T20:54:51.193Z,13.00
2023-03-14T20:59:54.173Z,12.80
2023-03-14T21:04:58.197Z,12.60
2023-03-14T21:10:01.030Z,13.80
2023-03-14T21:15:05.227Z,13.00
2023-03-14T21:20:12.939Z,12.30
2023-03-14T21:25:15.687Z,13.30
2023-03-14T21:30:18.644Z,12.90
2023-03-14T21:35:21.544Z,12.50
2023-03-14T21:40:24.691Z,13.60
2023-03-14T21:50:30.310Z,14.00
2023-03-14T21:55:33.154Z,8.70
2023-03-14T22:00:36.037Z,5.30
2023-03-14T22:05:41.309Z,3.00
2023-03-14T22:10:46.033Z,2.20
2023-03-14T22:15:50.099Z,2.30
2023-03-14T22:20:52.927Z,2.70
2023-03-14T22:25:55.631Z,3.00
2023-03-14T22:30:58.502Z,2.70
2023-03-14T22:41:05.258Z,3.20
2023-03-14T22:51:11.628Z,3.00
2023-03-14T22:56:14.438Z,2.50
2023-03-14T23:01:17.277Z,3.20
2023-03-14T23:06:21.172Z,3.40
2023-03-14T23:11:26.386Z,3.40
2023-03-14T23:16:39.690Z,8.20
2023-03-14T23:21:43.341Z,2.20
2023-03-14T23:26:46.304Z,2.80
2023-03-14T23:31:49.161Z,2.90
2023-03-14T23:36:52.117Z,2.40
2023-03-14T23:41:54.765Z,2.90
2023-03-14T23:46:57.824Z,2.50
2023-03-14T23:52:00.939Z,5.80
2023-03-14T23:57:05.450Z,3.60
